sensor_id;sensor_type;location;lat;lon;timestamp;temperature;humidity
42743;DHT22;28397;44.552;-0.848;2022-10-23T00:01:26;18.80;99.90
42743;DHT22;28397;44.552;-0.848;2022-10-23T00:03:58;19.00;99.90
42743;DHT22;28397;44.552;-0.848;2022-10-23T00:06:25;18.90;99.90
42743;DHT22;28397;44.552;-0.848;2022-10-23T00:08:51;18.80;99.90
42743;DHT22;28397;44.552;-0.848;2022-10-23T00:11:20;18.70;99.90
42743;DHT22;28397;44.552;-0.848;2022-10-23T00:13:47;18.80;99.90
42743;DHT22;28397;44.552;-0.848;2022-10-23T00:16:13;18.90;99.90
42743;DHT22;28397;44.552;-0.848;2022-10-23T00:18:39;18.90;99.90
42743;DHT22;28397;44.552;-0.848;2022-10-23T00:21:07;19.00;99.90
42743;DHT22;28397;44.552;-0.848;2022-10-23T00:23:33;18.70;99.90
42743;DHT22;28397;44.552;-0.848;2022-10-23T00:25:59;18.70;99.90
42743;DHT22;28397;44.552;-0.848;2022-10-23T00:28:25;18.50;99.90
42743;DHT22;28397;44.552;-0.848;2022-10-23T00:30:51;18.40;99.90
42743;DHT22;28397;44.552;-0.848;2022-10-23T00:33:17;18.40;99.90
42743;DHT22;28397;44.552;-0.848;2022-10-23T00:35:43;18.20;99.90
42743;DHT22;28397;44.552;-0.848;2022-10-23T00:38:11;18.10;99.90
42743;DHT22;28397;44.552;-0.848;2022-10-23T00:40:37;18.10;99.90
42743;DHT22;28397;44.552;-0.848;2022-10-23T00:43:03;18.00;99.90
42743;DHT22;28397;44.552;-0.848;2022-10-23T00:45:30;17.80;99.90
42743;DHT22;28397;44.552;-0.848;2022-10-23T00:48:01;17.70;99.90
42743;DHT22;28397;44.552;-0.848;2022-10-23T00:50:29;17.40;99.90
42743;DHT22;28397;44.552;-0.848;2022-10-23T00:52:56;17.50;99.90
42743;DHT22;28397;44.552;-0.848;2022-10-23T00:55:24;17.60;99.90
42743;DHT22;28397;44.552;-0.848;2022-10-23T00:57:51;17.40;99.90
42743;DHT22;28397;44.552;-0.848;2022-10-23T01:00:24;17.20;99.90
42743;DHT22;28397;44.552;-0.848;2022-10-23T01:02:50;17.00;99.90
42743;DHT22;28397;44.552;-0.848;2022-10-23T01:05:16;16.90;99.90
42743;DHT22;28397;44.552;-0.848;2022-10-23T01:10:35;17.00;99.90
42743;DHT22;28397;44.552;-0.848;2022-10-23T01:13:07;17.00;99.90
42743;DHT22;28397;44.552;-0.848;2022-10-23T01:15:36;16.90;99.90
42743;DHT22;28397;44.552;-0.848;2022-10-23T01:18:10;16.90;99.90
42743;DHT22;28397;44.552;-0.848;2022-10-23T01:20:52;17.40;99.90
42743;DHT22;28397;44.552;-0.848;2022-10-23T01:29:02;17.30;99.90
42743;DHT22;28397;44.552;-0.848;2022-10-23T01:31:40;17.20;99.90
42743;DHT22;28397;44.552;-0.848;2022-10-23T01:34:31;17.40;99.90
42743;DHT22;28397;44.552;-0.848;2022-10-23T01:37:00;17.50;99.90
42743;DHT22;28397;44.552;-0.848;2022-10-23T01:39:32;17.50;99.90
42743;DHT22;28397;44.552;-0.848;2022-10-23T01:42:04;17.30;99.90
42743;DHT22;28397;44.552;-0.848;2022-10-23T01:47:09;17.50;99.90
42743;DHT22;28397;44.552;-0.848;2022-10-23T01:49:36;17.40;99.90
42743;DHT22;28397;44.552;-0.848;2022-10-23T01:52:07;17.40;99.90
42743;DHT22;28397;44.552;-0.848;2022-10-23T01:54:38;17.40;99.90
42743;DHT22;28397;44.552;-0.848;2022-10-23T01:57:08;17.60;99.90
42743;DHT22;28397;44.552;-0.848;2022-10-23T01:59:39;17.60;99.90
42743;DHT22;28397;44.552;-0.848;2022-10-23T02:02:06;17.60;99.90
42743;DHT22;28397;44.552;-0.848;2022-10-23T02:05:23;17.60;99.90
42743;DHT22;28397;44.552;-0.848;2022-10-23T02:07:23;17.90;99.90
42743;DHT22;28397;44.552;-0.848;2022-10-23T02:09:49;18.00;99.90
42743;DHT22;28397;44.552;-0.848;2022-10-23T02:15:33;17.90;99.90
42743;DHT22;28397;44.552;-0.848;2022-10-23T02:23:02;18.10;99.90
42743;DHT22;28397;44.552;-0.848;2022-10-23T02:25:36;18.10;99.90
42743;DHT22;28397;44.552;-0.848;2022-10-23T02:28:07;18.00;99.90
42743;DHT22;28397;44.552;-0.848;2022-10-23T02:30:36;18.10;99.90
42743;DHT22;28397;44.552;-0.848;2022-10-23T02:33:07;18.00;99.90
42743;DHT22;28397;44.552;-0.848;2022-10-23T02:35:33;18.00;99.90
42743;DHT22;28397;44.552;-0.848;2022-10-23T02:37:59;17.90;99.90
42743;DHT22;28397;44.552;-0.848;2022-10-23T02:40:34;18.10;99.90
42743;DHT22;28397;44.552;-0.848;2022-10-23T02:43:17;18.00;99.90
42743;DHT22;28397;44.552;-0.848;2022-10-23T02:48:54;18.00;99.90
42743;DHT22;28397;44.552;-0.848;2022-10-23T02:51:32;17.90;99.90
42743;DHT22;28397;44.552;-0.848;2022-10-23T02:54:06;17.70;99.90
42743;DHT22;28397;44.552;-0.848;2022-10-23T02:56:58;17.70;99.90
42743;DHT22;28397;44.552;-0.848;2022-10-23T02:59:37;17.70;99.90
42743;DHT22;28397;44.552;-0.848;2022-10-23T03:02:10;17.60;99.90
42743;DHT22;28397;44.552;-0.848;2022-10-23T03:04:42;17.50;99.90
42743;DHT22;28397;44.552;-0.848;2022-10-23T03:07:17;17.40;99.90
42743;DHT22;28397;44.552;-0.848;2022-10-23T03:09:43;17.30;99.90
42743;DHT22;28397;44.552;-0.848;2022-10-23T03:12:09;17.30;99.90
42743;DHT22;28397;44.552;-0.848;2022-10-23T03:14:35;17.20;99.90
42743;DHT22;28397;44.552;-0.848;2022-10-23T03:17:01;17.40;99.90
42743;DHT22;28397;44.552;-0.848;2022-10-23T03:19:27;17.10;99.90
42743;DHT22;28397;44.552;-0.848;2022-10-23T03:21:53;17.00;99.90
42743;DHT22;28397;44.552;-0.848;2022-10-23T03:24:18;17.10;99.90
42743;DHT22;28397;44.552;-0.848;2022-10-23T03:26:44;17.10;99.90
42743;DHT22;28397;44.552;-0.848;2022-10-23T03:29:10;17.20;99.90
42743;DHT22;28397;44.552;-0.848;2022-10-23T03:31:35;17.10;99.90
42743;DHT22;28397;44.552;-0.848;2022-10-23T03:34:01;17.10;99.90
42743;DHT22;28397;44.552;-0.848;2022-10-23T03:36:27;16.90;99.90
42743;DHT22;28397;44.552;-0.848;2022-10-23T03:38:52;16.80;99.90
42743;DHT22;28397;44.552;-0.848;2022-10-23T03:41:18;16.60;99.90
42743;DHT22;28397;44.552;-0.848;2022-10-23T03:43:44;16.40;99.90
42743;DHT22;28397;44.552;-0.848;2022-10-23T03:46:09;16.70;99.90
42743;DHT22;28397;44.552;-0.848;2022-10-23T03:48:37;16.40;99.90
42743;DHT22;28397;44.552;-0.848;2022-10-23T03:51:06;16.30;99.90
42743;DHT22;28397;44.552;-0.848;2022-10-23T03:53:32;16.30;99.90
42743;DHT22;28397;44.552;-0.848;2022-10-23T03:55:58;16.50;99.90
42743;DHT22;28397;44.552;-0.848;2022-10-23T03:58:23;16.60;99.90
42743;DHT22;28397;44.552;-0.848;2022-10-23T04:00:49;16.90;99.90
42743;DHT22;28397;44.552;-0.848;2022-10-23T04:03:15;16.50;99.90
42743;DHT22;28397;44.552;-0.848;2022-10-23T04:05:41;17.00;99.90
42743;DHT22;28397;44.552;-0.848;2022-10-23T04:08:07;16.90;99.90
42743;DHT22;28397;44.552;-0.848;2022-10-23T04:10:33;16.30;99.90
42743;DHT22;28397;44.552;-0.848;2022-10-23T04:12:59;16.90;99.90
42743;DHT22;28397;44.552;-0.848;2022-10-23T04:15:25;17.00;99.90
42743;DHT22;28397;44.552;-0.848;2022-10-23T04:17:50;16.70;99.90
42743;DHT22;28397;44.552;-0.848;2022-10-23T04:20:16;17.00;99.90
42743;DHT22;28397;44.552;-0.848;2022-10-23T04:22:42;16.90;99.90
42743;DHT22;28397;44.552;-0.848;2022-10-23T04:25:08;16.80;99.90
42743;DHT22;28397;44.552;-0.848;2022-10-23T04:27:33;16.80;99.90
42743;DHT22;28397;44.552;-0.848;2022-10-23T04:30:00;16.70;99.90
42743;DHT22;28397;44.552;-0.848;2022-10-23T04:32:26;16.80;99.90
42743;DHT22;28397;44.552;-0.848;2022-10-23T04:34:51;16.70;99.90
42743;DHT22;28397;44.552;-0.848;2022-10-23T04:37:17;16.90;99.90
42743;DHT22;28397;44.552;-0.848;2022-10-23T04:39:43;17.00;99.90
42743;DHT22;28397;44.552;-0.848;2022-10-23T04:42:08;16.60;99.90
42743;DHT22;28397;44.552;-0.848;2022-10-23T04:44:34;16.50;99.90
42743;DHT22;28397;44.552;-0.848;2022-10-23T04:47:00;16.40;99.90
42743;DHT22;28397;44.552;-0.848;2022-10-23T04:49:25;16.60;99.90
42743;DHT22;28397;44.552;-0.848;2022-10-23T04:51:51;16.60;99.90
42743;DHT22;28397;44.552;-0.848;2022-10-23T04:54:17;16.60;99.90
42743;DHT22;28397;44.552;-0.848;2022-10-23T04:56:42;16.80;99.90
42743;DHT22;28397;44.552;-0.848;2022-10-23T04:59:08;16.80;99.90
42743;DHT22;28397;44.552;-0.848;2022-10-23T05:01:34;16.90;99.90
42743;DHT22;28397;44.552;-0.848;2022-10-23T05:04:00;16.90;99.90
42743;DHT22;28397;44.552;-0.848;2022-10-23T05:06:26;16.80;99.90
42743;DHT22;28397;44.552;-0.848;2022-10-23T05:08:51;16.70;99.90
42743;DHT22;28397;44.552;-0.848;2022-10-23T05:11:17;16.90;99.90
42743;DHT22;28397;44.552;-0.848;2022-10-23T05:13:43;16.90;99.90
42743;DHT22;28397;44.552;-0.848;2022-10-23T05:16:09;16.90;99.90
42743;DHT22;28397;44.552;-0.848;2022-10-23T05:18:39;17.00;99.90
42743;DHT22;28397;44.552;-0.848;2022-10-23T05:21:09;17.00;99.90
42743;DHT22;28397;44.552;-0.848;2022-10-23T05:23:37;17.00;99.90
42743;DHT22;28397;44.552;-0.848;2022-10-23T05:26:05;17.00;99.90
42743;DHT22;28397;44.552;-0.848;2022-10-23T05:28:31;16.90;99.90
42743;DHT22;28397;44.552;-0.848;2022-10-23T05:30:59;17.00;99.90
42743;DHT22;28397;44.552;-0.848;2022-10-23T05:33:26;17.00;99.90
42743;DHT22;28397;44.552;-0.848;2022-10-23T05:35:52;17.00;99.90
42743;DHT22;28397;44.552;-0.848;2022-10-23T05:38:18;16.80;99.90
42743;DHT22;28397;44.552;-0.848;2022-10-23T05:40:44;16.80;99.90
42743;DHT22;28397;44.552;-0.848;2022-10-23T05:43:10;16.80;99.90
42743;DHT22;28397;44.552;-0.848;2022-10-23T05:45:35;16.90;99.90
42743;DHT22;28397;44.552;-0.848;2022-10-23T05:48:01;16.80;99.90
42743;DHT22;28397;44.552;-0.848;2022-10-23T05:50:27;16.90;99.90
42743;DHT22;28397;44.552;-0.848;2022-10-23T05:52:52;16.90;99.90
42743;DHT22;28397;44.552;-0.848;2022-10-23T05:55:18;17.00;99.90
42743;DHT22;28397;44.552;-0.848;2022-10-23T05:57:44;16.90;99.90
42743;DHT22;28397;44.552;-0.848;2022-10-23T06:00:10;16.90;99.90
42743;DHT22;28397;44.552;-0.848;2022-10-23T06:02:36;17.00;99.90
42743;DHT22;28397;44.552;-0.848;2022-10-23T06:05:01;16.90;99.90
42743;DHT22;28397;44.552;-0.848;2022-10-23T06:07:29;17.00;99.90
42743;DHT22;28397;44.552;-0.848;2022-10-23T06:09:54;16.90;99.90
42743;DHT22;28397;44.552;-0.848;2022-10-23T06:12:21;16.90;99.90
42743;DHT22;28397;44.552;-0.848;2022-10-23T06:14:47;17.00;99.90
42743;DHT22;28397;44.552;-0.848;2022-10-23T06:17:14;17.00;99.90
42743;DHT22;28397;44.552;-0.848;2022-10-23T06:19:39;17.20;99.90
42743;DHT22;28397;44.552;-0.848;2022-10-23T06:22:05;17.20;99.90
42743;DHT22;28397;44.552;-0.848;2022-10-23T06:24:31;17.30;99.90
42743;DHT22;28397;44.552;-0.848;2022-10-23T06:26:57;17.20;99.90
42743;DHT22;28397;44.552;-0.848;2022-10-23T06:29:22;17.20;99.90
42743;DHT22;28397;44.552;-0.848;2022-10-23T06:31:48;17.20;99.90
42743;DHT22;28397;44.552;-0.848;2022-10-23T06:34:14;17.10;99.90
42743;DHT22;28397;44.552;-0.848;2022-10-23T06:36:40;17.10;99.90
42743;DHT22;28397;44.552;-0.848;2022-10-23T06:39:06;17.20;99.90
42743;DHT22;28397;44.552;-0.848;2022-10-23T06:41:32;17.20;99.90
42743;DHT22;28397;44.552;-0.848;2022-10-23T06:43:58;17.40;99.90
42743;DHT22;28397;44.552;-0.848;2022-10-23T06:46:24;17.30;99.90
42743;DHT22;28397;44.552;-0.848;2022-10-23T06:48:51;17.40;99.90
42743;DHT22;28397;44.552;-0.848;2022-10-23T06:51:18;17.40;99.90
42743;DHT22;28397;44.552;-0.848;2022-10-23T06:53:44;17.40;99.90
42743;DHT22;28397;44.552;-0.848;2022-10-23T06:56:10;17.50;99.90
42743;DHT22;28397;44.552;-0.848;2022-10-23T06:58:37;17.60;99.90
42743;DHT22;28397;44.552;-0.848;2022-10-23T07:01:06;17.60;99.90
42743;DHT22;28397;44.552;-0.848;2022-10-23T07:03:33;17.60;99.90
42743;DHT22;28397;44.552;-0.848;2022-10-23T07:06:03;17.70;99.90
42743;DHT22;28397;44.552;-0.848;2022-10-23T07:08:29;17.70;99.90
42743;DHT22;28397;44.552;-0.848;2022-10-23T07:10:55;17.70;99.90
42743;DHT22;28397;44.552;-0.848;2022-10-23T07:13:21;17.80;99.90
42743;DHT22;28397;44.552;-0.848;2022-10-23T07:15:49;17.90;99.90
42743;DHT22;28397;44.552;-0.848;2022-10-23T07:18:15;17.80;99.90
42743;DHT22;28397;44.552;-0.848;2022-10-23T07:20:41;18.10;99.90
42743;DHT22;28397;44.552;-0.848;2022-10-23T07:23:10;18.10;99.90
42743;DHT22;28397;44.552;-0.848;2022-10-23T07:25:36;18.20;99.90
42743;DHT22;28397;44.552;-0.848;2022-10-23T07:28:05;18.20;99.90
42743;DHT22;28397;44.552;-0.848;2022-10-23T07:30:31;18.30;99.90
42743;DHT22;28397;44.552;-0.848;2022-10-23T07:32:57;18.40;99.90
42743;DHT22;28397;44.552;-0.848;2022-10-23T07:35:22;18.40;99.90
42743;DHT22;28397;44.552;-0.848;2022-10-23T07:37:48;18.50;99.90
42743;DHT22;28397;44.552;-0.848;2022-10-23T07:40:14;18.50;99.90
42743;DHT22;28397;44.552;-0.848;2022-10-23T07:42:42;18.50;99.90
42743;DHT22;28397;44.552;-0.848;2022-10-23T07:45:08;18.60;99.90
42743;DHT22;28397;44.552;-0.848;2022-10-23T07:47:34;18.60;99.90
42743;DHT22;28397;44.552;-0.848;2022-10-23T07:50:00;18.60;99.90
42743;DHT22;28397;44.552;-0.848;2022-10-23T07:52:25;18.60;99.90
42743;DHT22;28397;44.552;-0.848;2022-10-23T07:54:51;18.60;99.90
42743;DHT22;28397;44.552;-0.848;2022-10-23T07:57:18;18.60;99.90
42743;DHT22;28397;44.552;-0.848;2022-10-23T07:59:43;18.70;99.90
42743;DHT22;28397;44.552;-0.848;2022-10-23T08:02:13;18.80;99.90
42743;DHT22;28397;44.552;-0.848;2022-10-23T08:04:40;18.70;99.90
42743;DHT22;28397;44.552;-0.848;2022-10-23T08:07:05;18.70;99.90
42743;DHT22;28397;44.552;-0.848;2022-10-23T08:09:31;18.60;99.90
42743;DHT22;28397;44.552;-0.848;2022-10-23T08:11:59;18.70;99.90
42743;DHT22;28397;44.552;-0.848;2022-10-23T08:14:25;18.60;99.90
42743;DHT22;28397;44.552;-0.848;2022-10-23T08:16:51;18.90;99.90
42743;DHT22;28397;44.552;-0.848;2022-10-23T08:19:17;18.60;99.90
42743;DHT22;28397;44.552;-0.848;2022-10-23T08:21:42;18.60;99.90
42743;DHT22;28397;44.552;-0.848;2022-10-23T08:24:10;18.90;99.90
42743;DHT22;28397;44.552;-0.848;2022-10-23T08:26:38;19.00;99.90
42743;DHT22;28397;44.552;-0.848;2022-10-23T08:29:04;18.90;99.90
42743;DHT22;28397;44.552;-0.848;2022-10-23T08:31:29;19.10;99.90
42743;DHT22;28397;44.552;-0.848;2022-10-23T08:33:55;19.20;99.90
42743;DHT22;28397;44.552;-0.848;2022-10-23T08:36:23;19.20;99.90
42743;DHT22;28397;44.552;-0.848;2022-10-23T08:38:52;19.40;99.90
42743;DHT22;28397;44.552;-0.848;2022-10-23T08:41:31;19.70;99.90
42743;DHT22;28397;44.552;-0.848;2022-10-23T08:47:01;19.60;99.90
42743;DHT22;28397;44.552;-0.848;2022-10-23T08:49:49;19.60;99.90
42743;DHT22;28397;44.552;-0.848;2022-10-23T08:52:32;19.80;99.90
42743;DHT22;28397;44.552;-0.848;2022-10-23T08:55:20;19.90;99.90
42743;DHT22;28397;44.552;-0.848;2022-10-23T08:58:06;20.00;99.90
42743;DHT22;28397;44.552;-0.848;2022-10-23T09:00:32;20.10;99.90
42743;DHT22;28397;44.552;-0.848;2022-10-23T09:03:01;20.10;99.90
42743;DHT22;28397;44.552;-0.848;2022-10-23T09:14:07;20.40;99.90
42743;DHT22;28397;44.552;-0.848;2022-10-23T09:19:18;20.60;99.90
42743;DHT22;28397;44.552;-0.848;2022-10-23T09:21:46;20.60;99.90
42743;DHT22;28397;44.552;-0.848;2022-10-23T09:24:16;20.60;99.90
42743;DHT22;28397;44.552;-0.848;2022-10-23T09:26:47;20.50;99.90
42743;DHT22;28397;44.552;-0.848;2022-10-23T09:29:24;20.60;99.90
42743;DHT22;28397;44.552;-0.848;2022-10-23T09:31:55;20.60;99.90
42743;DHT22;28397;44.552;-0.848;2022-10-23T09:34:24;20.70;99.90
42743;DHT22;28397;44.552;-0.848;2022-10-23T09:36:53;20.80;99.90
42743;DHT22;28397;44.552;-0.848;2022-10-23T09:39:33;20.70;99.90
42743;DHT22;28397;44.552;-0.848;2022-10-23T09:41:59;20.90;99.90
42743;DHT22;28397;44.552;-0.848;2022-10-23T09:44:31;20.70;99.90
42743;DHT22;28397;44.552;-0.848;2022-10-23T09:47:09;20.90;99.90
42743;DHT22;28397;44.552;-0.848;2022-10-23T09:49:39;20.80;99.90
42743;DHT22;28397;44.552;-0.848;2022-10-23T09:54:42;21.00;99.90
42743;DHT22;28397;44.552;-0.848;2022-10-23T10:00:03;21.10;99.90
42743;DHT22;28397;44.552;-0.848;2022-10-23T10:02:35;21.30;99.90
42743;DHT22;28397;44.552;-0.848;2022-10-23T10:05:29;21.30;99.90
42743;DHT22;28397;44.552;-0.848;2022-10-23T10:10:25;21.40;99.90
42743;DHT22;28397;44.552;-0.848;2022-10-23T10:12:57;21.40;99.90
42743;DHT22;28397;44.552;-0.848;2022-10-23T10:15:36;21.40;99.90
42743;DHT22;28397;44.552;-0.848;2022-10-23T10:21:27;21.30;99.90
42743;DHT22;28397;44.552;-0.848;2022-10-23T10:24:07;21.40;99.90
42743;DHT22;28397;44.552;-0.848;2022-10-23T10:32:40;22.50;99.90
42743;DHT22;28397;44.552;-0.848;2022-10-23T10:37:57;22.80;99.90
42743;DHT22;28397;44.552;-0.848;2022-10-23T10:43:44;23.30;99.90
42743;DHT22;28397;44.552;-0.848;2022-10-23T10:46:13;23.10;99.90
42743;DHT22;28397;44.552;-0.848;2022-10-23T10:48:50;23.20;99.90
42743;DHT22;28397;44.552;-0.848;2022-10-23T10:51:29;23.40;99.90
42743;DHT22;28397;44.552;-0.848;2022-10-23T10:56:44;23.50;99.90
42743;DHT22;28397;44.552;-0.848;2022-10-23T11:04:45;23.70;99.90
42743;DHT22;28397;44.552;-0.848;2022-10-23T11:07:16;24.00;99.90
42743;DHT22;28397;44.552;-0.848;2022-10-23T11:09:43;23.80;99.90
42743;DHT22;28397;44.552;-0.848;2022-10-23T11:12:22;23.80;99.90
42743;DHT22;28397;44.552;-0.848;2022-10-23T11:14:49;24.00;99.90
42743;DHT22;28397;44.552;-0.848;2022-10-23T11:17:19;24.10;99.90
42743;DHT22;28397;44.552;-0.848;2022-10-23T11:22:47;24.60;99.90
42743;DHT22;28397;44.552;-0.848;2022-10-23T11:33:49;25.10;99.90
42743;DHT22;28397;44.552;-0.848;2022-10-23T11:36:20;25.20;99.90
42743;DHT22;28397;44.552;-0.848;2022-10-23T11:39:14;25.30;99.90
42743;DHT22;28397;44.552;-0.848;2022-10-23T11:41:52;25.80;99.90
42743;DHT22;28397;44.552;-0.848;2022-10-23T11:44:27;26.00;99.90
42743;DHT22;28397;44.552;-0.848;2022-10-23T11:47:42;26.00;99.90
42743;DHT22;28397;44.552;-0.848;2022-10-23T11:49:49;26.30;99.90
42743;DHT22;28397;44.552;-0.848;2022-10-23T11:52:23;26.40;99.90
42743;DHT22;28397;44.552;-0.848;2022-10-23T11:55:03;25.80;99.90
42743;DHT22;28397;44.552;-0.848;2022-10-23T11:57:29;25.80;99.90
42743;DHT22;28397;44.552;-0.848;2022-10-23T11:59:56;25.90;99.90
42743;DHT22;28397;44.552;-0.848;2022-10-23T12:04:59;25.60;99.90
42743;DHT22;28397;44.552;-0.848;2022-10-23T12:07:36;25.50;99.90
42743;DHT22;28397;44.552;-0.848;2022-10-23T12:10:22;25.80;99.90
42743;DHT22;28397;44.552;-0.848;2022-10-23T12:12:56;25.80;99.90
42743;DHT22;28397;44.552;-0.848;2022-10-23T12:15:23;25.50;99.90
42743;DHT22;28397;44.552;-0.848;2022-10-23T12:17:52;25.60;99.90
42743;DHT22;28397;44.552;-0.848;2022-10-23T12:20:29;25.20;99.90
42743;DHT22;28397;44.552;-0.848;2022-10-23T12:30:44;25.40;99.90
42743;DHT22;28397;44.552;-0.848;2022-10-23T12:33:25;25.20;99.90
42743;DHT22;28397;44.552;-0.848;2022-10-23T12:38:31;25.80;99.90
42743;DHT22;28397;44.552;-0.848;2022-10-23T12:41:09;25.40;99.90
42743;DHT22;28397;44.552;-0.848;2022-10-23T12:43:36;25.50;99.90
42743;DHT22;28397;44.552;-0.848;2022-10-23T12:48:52;25.60;99.90
42743;DHT22;28397;44.552;-0.848;2022-10-23T12:51:23;25.60;99.90
42743;DHT22;28397;44.552;-0.848;2022-10-23T12:53:50;25.50;99.90
42743;DHT22;28397;44.552;-0.848;2022-10-23T12:56:16;25.30;99.90
42743;DHT22;28397;44.552;-0.848;2022-10-23T12:58:57;25.30;99.90
42743;DHT22;28397;44.552;-0.848;2022-10-23T13:01:33;25.40;99.90
42743;DHT22;28397;44.552;-0.848;2022-10-23T13:06:38;25.20;99.90
42743;DHT22;28397;44.552;-0.848;2022-10-23T13:09:05;25.20;99.90
42743;DHT22;28397;44.552;-0.848;2022-10-23T13:11:32;25.40;99.90
42743;DHT22;28397;44.552;-0.848;2022-10-23T13:13:58;25.30;99.90
42743;DHT22;28397;44.552;-0.848;2022-10-23T13:16:25;25.50;99.90
42743;DHT22;28397;44.552;-0.848;2022-10-23T13:18:51;25.40;99.90
42743;DHT22;28397;44.552;-0.848;2022-10-23T13:21:27;25.60;99.90
42743;DHT22;28397;44.552;-0.848;2022-10-23T13:23:53;25.40;99.90
42743;DHT22;28397;44.552;-0.848;2022-10-23T13:26:38;25.20;99.90
42743;DHT22;28397;44.552;-0.848;2022-10-23T13:29:27;25.10;99.60
42743;DHT22;28397;44.552;-0.848;2022-10-23T13:31:53;25.40;99.90
42743;DHT22;28397;44.552;-0.848;2022-10-23T13:34:26;25.40;99.90
42743;DHT22;28397;44.552;-0.848;2022-10-23T13:39:28;25.20;99.90
42743;DHT22;28397;44.552;-0.848;2022-10-23T13:41:57;25.10;99.90
42743;DHT22;28397;44.552;-0.848;2022-10-23T13:44:23;25.10;99.80
42743;DHT22;28397;44.552;-0.848;2022-10-23T13:46:49;25.20;99.90
42743;DHT22;28397;44.552;-0.848;2022-10-23T13:49:16;25.00;98.90
42743;DHT22;28397;44.552;-0.848;2022-10-23T13:51:43;25.30;99.90
42743;DHT22;28397;44.552;-0.848;2022-10-23T13:54:14;25.00;99.90
42743;DHT22;28397;44.552;-0.848;2022-10-23T13:56:40;24.90;99.10
42743;DHT22;28397;44.552;-0.848;2022-10-23T13:59:08;24.80;99.50
42743;DHT22;28397;44.552;-0.848;2022-10-23T14:01:34;25.00;98.70
42743;DHT22;28397;44.552;-0.848;2022-10-23T14:04:01;24.80;98.40
42743;DHT22;28397;44.552;-0.848;2022-10-23T14:06:28;25.00;98.50
42743;DHT22;28397;44.552;-0.848;2022-10-23T14:08:54;24.80;98.10
42743;DHT22;28397;44.552;-0.848;2022-10-23T14:11:20;24.90;98.80
42743;DHT22;28397;44.552;-0.848;2022-10-23T14:13:47;24.70;99.00
42743;DHT22;28397;44.552;-0.848;2022-10-23T14:16:14;25.00;98.40
42743;DHT22;28397;44.552;-0.848;2022-10-23T14:18:41;25.00;98.90
42743;DHT22;28397;44.552;-0.848;2022-10-23T14:21:09;24.80;97.90
42743;DHT22;28397;44.552;-0.848;2022-10-23T14:23:35;24.90;98.40
42743;DHT22;28397;44.552;-0.848;2022-10-23T14:26:02;25.00;99.10
42743;DHT22;28397;44.552;-0.848;2022-10-23T14:28:28;25.00;98.50
42743;DHT22;28397;44.552;-0.848;2022-10-23T14:30:54;25.00;98.40
42743;DHT22;28397;44.552;-0.848;2022-10-23T14:33:20;25.10;97.50
42743;DHT22;28397;44.552;-0.848;2022-10-23T14:35:48;24.90;98.00
42743;DHT22;28397;44.552;-0.848;2022-10-23T14:38:13;25.10;97.70
42743;DHT22;28397;44.552;-0.848;2022-10-23T14:40:39;25.10;98.20
42743;DHT22;28397;44.552;-0.848;2022-10-23T14:43:05;24.80;98.60
42743;DHT22;28397;44.552;-0.848;2022-10-23T14:45:31;24.90;99.10
42743;DHT22;28397;44.552;-0.848;2022-10-23T14:47:57;24.80;98.00
42743;DHT22;28397;44.552;-0.848;2022-10-23T14:50:25;24.70;98.70
42743;DHT22;28397;44.552;-0.848;2022-10-23T14:52:51;25.00;98.50
42743;DHT22;28397;44.552;-0.848;2022-10-23T14:55:17;24.90;96.60
42743;DHT22;28397;44.552;-0.848;2022-10-23T14:57:43;24.90;97.60
42743;DHT22;28397;44.552;-0.848;2022-10-23T15:00:09;24.90;97.90
42743;DHT22;28397;44.552;-0.848;2022-10-23T15:02:36;25.00;98.30
42743;DHT22;28397;44.552;-0.848;2022-10-23T15:05:01;24.60;97.70
42743;DHT22;28397;44.552;-0.848;2022-10-23T15:07:27;24.60;97.30
42743;DHT22;28397;44.552;-0.848;2022-10-23T15:09:53;24.70;97.70
42743;DHT22;28397;44.552;-0.848;2022-10-23T15:12:19;24.60;96.90
42743;DHT22;28397;44.552;-0.848;2022-10-23T15:14:45;24.60;96.80
42743;DHT22;28397;44.552;-0.848;2022-10-23T15:17:11;24.40;96.60
42743;DHT22;28397;44.552;-0.848;2022-10-23T15:19:37;24.50;96.50
42743;DHT22;28397;44.552;-0.848;2022-10-23T15:22:02;24.40;97.00
42743;DHT22;28397;44.552;-0.848;2022-10-23T15:24:28;24.20;97.10
42743;DHT22;28397;44.552;-0.848;2022-10-23T15:26:54;24.40;96.70
42743;DHT22;28397;44.552;-0.848;2022-10-23T15:29:19;24.30;96.20
42743;DHT22;28397;44.552;-0.848;2022-10-23T15:31:54;24.30;97.30
42743;DHT22;28397;44.552;-0.848;2022-10-23T15:34:22;24.20;97.70
42743;DHT22;28397;44.552;-0.848;2022-10-23T15:36:49;24.20;96.70
42743;DHT22;28397;44.552;-0.848;2022-10-23T15:39:19;24.10;96.90
42743;DHT22;28397;44.552;-0.848;2022-10-23T15:41:45;24.10;97.30
42743;DHT22;28397;44.552;-0.848;2022-10-23T15:44:14;24.00;97.40
42743;DHT22;28397;44.552;-0.848;2022-10-23T15:46:40;24.00;97.70
42743;DHT22;28397;44.552;-0.848;2022-10-23T15:49:06;24.00;98.30
42743;DHT22;28397;44.552;-0.848;2022-10-23T15:51:33;23.80;98.10
42743;DHT22;28397;44.552;-0.848;2022-10-23T15:54:01;23.80;97.70
42743;DHT22;28397;44.552;-0.848;2022-10-23T15:56:27;23.70;98.80
42743;DHT22;28397;44.552;-0.848;2022-10-23T15:58:53;23.60;98.60
42743;DHT22;28397;44.552;-0.848;2022-10-23T16:01:18;23.40;98.40
42743;DHT22;28397;44.552;-0.848;2022-10-23T16:03:44;23.60;98.50
42743;DHT22;28397;44.552;-0.848;2022-10-23T16:06:12;23.30;98.90
42743;DHT22;28397;44.552;-0.848;2022-10-23T16:08:38;23.50;99.90
42743;DHT22;28397;44.552;-0.848;2022-10-23T16:11:19;23.10;99.80
42743;DHT22;28397;44.552;-0.848;2022-10-23T16:13:46;23.10;99.10
42743;DHT22;28397;44.552;-0.848;2022-10-23T16:16:12;23.20;99.80
42743;DHT22;28397;44.552;-0.848;2022-10-23T16:18:39;22.80;99.90
42743;DHT22;28397;44.552;-0.848;2022-10-23T16:21:06;22.90;99.90
42743;DHT22;28397;44.552;-0.848;2022-10-23T16:23:32;22.70;99.90
42743;DHT22;28397;44.552;-0.848;2022-10-23T16:26:03;22.70;99.90
42743;DHT22;28397;44.552;-0.848;2022-10-23T16:28:29;22.80;99.90
42743;DHT22;28397;44.552;-0.848;2022-10-23T16:30:55;22.40;99.90
42743;DHT22;28397;44.552;-0.848;2022-10-23T16:33:21;22.50;99.90
42743;DHT22;28397;44.552;-0.848;2022-10-23T16:35:46;22.40;99.90
42743;DHT22;28397;44.552;-0.848;2022-10-23T16:38:12;22.00;99.90
42743;DHT22;28397;44.552;-0.848;2022-10-23T16:40:38;22.10;99.90
42743;DHT22;28397;44.552;-0.848;2022-10-23T16:43:03;21.80;99.90
42743;DHT22;28397;44.552;-0.848;2022-10-23T16:45:29;21.80;99.90
42743;DHT22;28397;44.552;-0.848;2022-10-23T16:47:55;21.40;99.90
42743;DHT22;28397;44.552;-0.848;2022-10-23T16:50:21;21.30;99.90
42743;DHT22;28397;44.552;-0.848;2022-10-23T16:52:47;21.10;99.90
42743;DHT22;28397;44.552;-0.848;2022-10-23T16:55:13;21.00;99.90
42743;DHT22;28397;44.552;-0.848;2022-10-23T16:57:39;20.90;99.90
42743;DHT22;28397;44.552;-0.848;2022-10-23T17:00:06;20.90;99.90
42743;DHT22;28397;44.552;-0.848;2022-10-23T17:02:32;20.90;99.90
42743;DHT22;28397;44.552;-0.848;2022-10-23T17:04:57;20.80;99.90